Time;durP1;ratioP1;P1;durP2;ratioP2;P2;SDS_P1;SDS_P2;PMS_P1;PMS_P2;Temp;Humidity;BMP_temperature;BMP_pressure;BME280_temperature;BME280_humidity;BME280_pressure;Samples;Min_cycle;Max_cycle;Signal;HPM_P1;HPM_P2
2022/05/31 00:00:36;;;;;;;3.47;1.73;;;9.70;99.90;;;;;;5056771;28;20044;-90
2022/05/31 00:03:04;;;;;;;4.38;1.50;;;9.70;99.90;;;;;;5056859;28;20013;-87
2022/05/31 00:05:30;;;;;;;4.03;1.90;;;9.80;99.90;;;;;;5057060;28;20013;-88
2022/05/31 00:07:56;;;;;;;3.38;1.88;;;9.80;99.90;;;;;;5057006;28;20033;-88
2022/05/31 00:10:22;;;;;;;2.20;1.50;;;9.80;99.90;;;;;;5056970;28;20051;-89
2022/05/31 00:12:48;;;;;;;4.32;2.42;;;9.90;99.90;;;;;;5057101;28;20032;-90
2022/05/31 00:15:16;;;;;;;4.05;1.92;;;9.90;99.90;;;;;;5057638;28;20014;-91
2022/05/31 00:17:42;;;;;;;4.82;1.77;;;9.90;99.90;;;;;;5057698;28;20018;-87
2022/05/31 00:20:10;;;;;;;3.53;1.70;;;9.90;99.90;;;;;;5056893;28;20017;-88
2022/05/31 00:22:38;;;;;;;3.08;1.85;;;10.00;99.90;;;;;;5057687;28;20014;-88
2022/05/31 00:25:05;;;;;;;5.90;1.95;;;10.00;99.90;;;;;;5057012;28;20020;-90
2022/05/31 00:27:31;;;;;;;7.60;2.80;;;10.00;99.90;;;;;;5056747;28;20048;-89
2022/05/31 00:29:58;;;;;;;7.63;2.80;;;10.00;99.90;;;;;;5056982;28;20029;-92
2022/05/31 00:32:28;;;;;;;4.32;2.17;;;10.00;99.90;;;;;;5056662;28;20101;-87
2022/05/31 00:34:56;;;;;;;5.32;2.70;;;10.00;99.90;;;;;;5056535;28;20014;-90
2022/05/31 00:37:23;;;;;;;4.25;2.17;;;10.00;99.90;;;;;;5057578;28;20013;-88
2022/05/31 00:39:51;;;;;;;5.47;2.30;;;10.00;99.90;;;;;;5057073;28;20106;-88
2022/05/31 00:42:22;;;;;;;2.40;1.88;;;10.00;99.90;;;;;;5056667;28;20018;-89
2022/05/31 00:44:49;;;;;;;5.10;2.22;;;10.00;99.90;;;;;;5057428;28;20013;-92
2022/05/31 00:47:30;;;;;;;4.15;2.50;;;10.00;99.90;;;;;;5056558;28;20089;-88
2022/05/31 00:50:20;;;;;;;3.58;2.08;;;9.90;99.90;;;;;;5056461;28;20029;-90
2022/05/31 00:52:50;;;;;;;6.03;1.80;;;9.90;99.90;;;;;;5056619;28;20024;-89
2022/05/31 00:55:33;;;;;;;6.13;2.63;;;9.80;99.90;;;;;;5056634;28;20021;-90
2022/05/31 00:58:07;;;;;;;5.22;2.67;;;9.80;99.90;;;;;;5056582;28;20298;-90
2022/05/31 01:00:37;;;;;;;4.22;2.40;;;9.70;99.90;;;;;;5056599;28;20010;-91
2022/05/31 01:03:04;;;;;;;5.22;2.28;;;9.70;99.90;;;;;;5040048;28;20021;-91
2022/05/31 01:05:30;;;;;;;3.03;2.22;;;9.70;99.90;;;;;;5060058;28;20017;-92
2022/05/31 01:07:57;;;;;;;6.40;2.90;;;9.70;99.90;;;;;;5059968;28;20017;-91
2022/05/31 01:10:23;;;;;;;5.03;2.70;;;9.70;99.90;;;;;;5060504;28;20034;-87
2022/05/31 01:12:52;;;;;;;4.78;2.50;;;9.60;99.90;;;;;;5059885;28;20101;-91
2022/05/31 01:15:19;;;;;;;7.03;2.28;;;9.60;99.90;;;;;;5060736;28;20017;-90
2022/05/31 01:17:45;;;;;;;4.88;2.13;;;9.60;99.90;;;;;;5060024;28;20021;-90
2022/05/31 01:20:18;;;;;;;5.97;2.13;;;9.60;99.90;;;;;;5059481;28;20033;-90
2022/05/31 01:22:56;;;;;;;3.58;2.30;;;9.60;99.90;;;;;;5059162;28;20047;-90
2022/05/31 01:25:25;;;;;;;5.18;1.90;;;9.50;99.90;;;;;;5059439;28;20060;-91
2022/05/31 01:28:05;;;;;;;4.38;2.30;;;9.50;99.90;;;;;;5059496;28;20032;-91
2022/05/31 01:30:43;;;;;;;5.00;2.30;;;9.50;99.90;;;;;;5059457;28;20032;-88
2022/05/31 01:33:23;;;;;;;6.97;2.20;;;9.50;99.90;;;;;;5058580;28;20029;-91
2022/05/31 01:35:49;;;;;;;4.72;1.98;;;9.50;99.90;;;;;;5059459;28;20021;-88
2022/05/31 01:38:21;;;;;;;5.45;1.90;;;9.50;99.90;;;;;;5059228;28;20220;-91
2022/05/31 01:41:00;;;;;;;6.95;3.00;;;9.50;99.90;;;;;;5059395;28;20025;-92
2022/05/31 01:43:27;;;;;;;4.18;2.47;;;9.50;99.90;;;;;;5059115;28;20045;-88
2022/05/31 01:45:58;;;;;;;8.05;2.38;;;9.50;99.90;;;;;;5059314;28;20006;-88
2022/05/31 01:48:30;;;;;;;3.83;1.92;;;9.50;99.90;;;;;;5059288;28;20097;-90
2022/05/31 01:50:57;;;;;;;5.45;2.25;;;9.50;99.90;;;;;;5059378;28;20051;-89
2022/05/31 01:53:23;;;;;;;3.45;2.17;;;9.50;99.90;;;;;;5058919;28;20109;-93
2022/05/31 01:55:49;;;;;;;6.00;2.83;;;9.40;99.90;;;;;;5059028;28;20048;-91
2022/05/31 01:58:19;;;;;;;6.70;2.55;;;9.40;99.90;;;;;;5059044;28;20025;-91
2022/05/31 02:00:45;;;;;;;6.50;2.53;;;9.40;99.90;;;;;;5059081;28;20017;-90
2022/05/31 02:03:16;;;;;;;5.43;2.47;;;9.40;99.90;;;;;;5059029;28;20010;-89
2022/05/31 02:05:53;;;;;;;2.78;2.20;;;9.40;99.90;;;;;;5059412;28;20109;-87
2022/05/31 02:08:22;;;;;;;3.97;2.80;;;9.40;99.90;;;;;;5058924;28;20022;-96
2022/05/31 02:10:50;;;;;;;7.35;2.55;;;9.40;99.90;;;;;;5058962;28;20025;-88
2022/05/31 02:13:17;;;;;;;4.32;2.55;;;9.40;99.90;;;;;;5058846;28;20030;-88
2022/05/31 02:15:44;;;;;;;3.53;2.55;;;9.30;99.90;;;;;;5058432;28;20014;-91
2022/05/31 02:18:12;;;;;;;5.60;2.50;;;9.30;99.90;;;;;;5058662;28;20029;-92
2022/05/31 02:20:38;;;;;;;5.22;2.80;;;9.20;99.90;;;;;;5058723;28;20017;-91
2022/05/31 02:23:04;;;;;;;8.30;2.60;;;9.20;99.90;;;;;;5058421;28;20032;-91
2022/05/31 02:25:30;;;;;;;4.53;2.40;;;9.20;99.90;;;;;;5058239;28;20017;-88
2022/05/31 02:27:56;;;;;;;4.28;2.70;;;9.20;99.90;;;;;;5058387;28;20093;-89
2022/05/31 02:30:22;;;;;;;6.90;2.53;;;9.20;99.90;;;;;;5058036;28;20019;-89
2022/05/31 02:32:48;;;;;;;3.33;2.25;;;9.20;99.90;;;;;;5058044;28;20053;-86
2022/05/31 02:35:14;;;;;;;4.45;2.25;;;9.30;99.90;;;;;;5058265;28;20052;-87
2022/05/31 02:37:43;;;;;;;6.57;2.45;;;9.30;99.90;;;;;;5058226;28;20030;-87
2022/05/31 02:40:09;;;;;;;5.30;2.50;;;9.30;99.90;;;;;;5057978;28;20139;-89
2022/05/31 02:42:37;;;;;;;2.55;2.10;;;9.30;99.90;;;;;;5057580;28;20048;-87
2022/05/31 02:45:06;;;;;;;5.30;2.47;;;9.30;99.90;;;;;;5057517;28;20101;-90
2022/05/31 02:47:33;;;;;;;6.95;2.55;;;9.30;99.90;;;;;;5057867;28;20051;-90
2022/05/31 02:49:58;;;;;;;5.18;2.60;;;9.30;99.90;;;;;;5057588;28;20017;-91
2022/05/31 02:52:24;;;;;;;8.63;2.80;;;9.30;99.90;;;;;;5057565;28;20017;-89
2022/05/31 02:54:53;;;;;;;7.50;2.97;;;9.30;99.90;;;;;;5058517;28;20044;-89
2022/05/31 02:57:19;;;;;;;7.18;3.05;;;9.20;99.90;;;;;;5041459;28;20040;-87
2022/05/31 02:59:45;;;;;;;8.15;2.55;;;9.20;99.90;;;;;;5024729;28;20026;-88
2022/05/31 03:02:12;;;;;;;6.53;2.47;;;9.20;99.90;;;;;;5058298;28;20088;-91
2022/05/31 03:04:38;;;;;;;3.67;2.72;;;9.20;99.90;;;;;;5058523;28;20029;-89
2022/05/31 03:07:05;;;;;;;5.78;3.10;;;9.20;99.90;;;;;;5058424;28;20028;-87
2022/05/31 03:09:31;;;;;;;4.68;2.45;;;9.10;99.90;;;;;;5057944;28;20036;-89
2022/05/31 03:12:05;;;;;;;4.80;2.95;;;9.10;99.90;;;;;;5057766;28;20025;-85
2022/05/31 03:14:31;;;;;;;4.07;3.17;;;9.20;99.90;;;;;;5041942;28;20041;-88
2022/05/31 03:17:07;;;;;;;8.55;2.78;;;9.10;99.90;;;;;;5058309;28;20022;-87
2022/05/31 03:19:51;;;;;;;8.95;4.10;;;9.10;99.90;;;;;;5058614;28;20046;-91
2022/05/31 03:22:23;;;;;;;5.38;2.75;;;9.20;99.90;;;;;;5057486;28;20025;-92
2022/05/31 03:25:01;;;;;;;6.15;2.30;;;9.20;99.90;;;;;;5057396;28;20048;-88
2022/05/31 03:27:28;;;;;;;4.68;2.67;;;9.10;99.90;;;;;;5056407;28;20033;-90
2022/05/31 03:29:58;;;;;;;6.68;2.95;;;9.10;99.90;;;;;;5057155;28;20017;-87
2022/05/31 03:32:23;;;;;;;3.40;2.43;;;9.10;99.90;;;;;;5041065;28;20033;-88
2022/05/31 03:34:50;;;;;;;4.53;2.75;;;9.10;99.90;;;;;;5057402;28;20085;-88
2022/05/31 03:37:16;;;;;;;6.22;3.05;;;9.10;99.90;;;;;;5057149;28;20077;-88
2022/05/31 03:39:48;;;;;;;5.05;3.00;;;9.10;99.90;;;;;;5057119;28;20018;-88
2022/05/31 03:42:14;;;;;;;5.55;2.83;;;9.10;99.90;;;;;;5057913;28;20021;-91
2022/05/31 03:44:40;;;;;;;5.47;2.78;;;9.10;99.90;;;;;;5056885;28;20025;-88
2022/05/31 03:47:06;;;;;;;6.20;3.00;;;9.10;99.90;;;;;;5055951;28;20026;-94
2022/05/31 03:49:33;;;;;;;7.43;3.40;;;9.10;99.90;;;;;;5056843;28;20026;-94
2022/05/31 03:51:59;;;;;;;7.65;3.30;;;9.00;99.90;;;;;;5056287;28;20018;-91
2022/05/31 03:54:25;;;;;;;9.75;3.42;;;9.00;99.90;;;;;;5056665;28;20030;-94
2022/05/31 03:56:51;;;;;;;3.90;3.30;;;9.00;99.90;;;;;;5057058;28;20016;-90
2022/05/31 03:59:17;;;;;;;3.97;2.95;;;9.00;99.90;;;;;;5057111;28;20088;-88
2022/05/31 04:01:43;;;;;;;5.50;3.33;;;9.00;99.90;;;;;;5057800;28;20033;-87
2022/05/31 04:04:11;;;;;;;5.65;3.30;;;9.00;99.90;;;;;;5056875;28;20017;-88
2022/05/31 04:06:37;;;;;;;4.57;3.10;;;9.00;99.90;;;;;;5056979;28;20077;-88
2022/05/31 04:09:04;;;;;;;4.13;2.88;;;9.00;99.90;;;;;;5056810;28;20022;-88
2022/05/31 04:11:30;;;;;;;4.88;3.03;;;9.00;99.90;;;;;;5057149;28;20065;-88
2022/05/31 04:13:55;;;;;;;8.40;4.10;;;9.00;99.90;;;;;;5056723;28;20040;-88
2022/05/31 04:16:23;;;;;;;5.75;3.97;;;9.00;99.90;;;;;;5057462;28;20049;-89
2022/05/31 04:18:48;;;;;;;6.15;3.58;;;9.00;99.90;;;;;;5056726;28;20101;-93
2022/05/31 04:21:17;;;;;;;6.30;3.30;;;9.00;99.90;;;;;;5040022;28;20044;-93
2022/05/31 04:23:58;;;;;;;5.32;3.08;;;9.00;99.90;;;;;;5055783;28;20084;-92
2022/05/31 04:26:26;;;;;;;6.57;3.38;;;9.00;99.90;;;;;;5056067;28;20013;-91
2022/05/31 04:28:52;;;;;;;5.25;3.15;;;9.00;99.90;;;;;;5056101;28;20053;-93
2022/05/31 04:31:18;;;;;;;5.63;3.20;;;9.00;99.90;;;;;;5054574;28;20029;-95
2022/05/31 04:33:43;;;;;;;5.28;3.42;;;9.00;99.90;;;;;;5056151;28;20049;-93
2022/05/31 04:36:14;;;;;;;6.07;3.47;;;9.00;99.90;;;;;;5056010;28;20020;-90
2022/05/31 04:38:40;;;;;;;5.32;3.72;;;9.00;99.90;;;;;;5057022;28;20025;-94
2022/05/31 04:41:06;;;;;;;4.97;3.17;;;9.00;99.90;;;;;;5056851;28;20037;-95
2022/05/31 04:43:33;;;;;;;6.25;3.50;;;9.00;99.90;;;;;;5056584;28;20029;-93
2022/05/31 04:46:29;;;;;;;5.05;3.80;;;9.00;99.90;;;;;;5055629;28;20379;-94
2022/05/31 04:48:56;;;;;;;4.32;3.13;;;9.00;99.90;;;;;;5049420;28;20037;-95
2022/05/31 04:51:22;;;;;;;7.47;3.72;;;9.00;99.90;;;;;;5047758;28;20022;-94
2022/05/31 04:53:49;;;;;;;6.65;3.88;;;9.00;99.90;;;;;;5043255;28;20036;-95
2022/05/31 04:56:20;;;;;;;7.20;3.55;;;9.00;99.90;;;;;;5038692;28;20044;-95
2022/05/31 04:58:47;;;;;;;7.07;3.95;;;9.00;99.90;;;;;;5037462;28;20060;-93
2022/05/31 05:01:12;;;;;;;8.52;4.07;;;9.00;99.90;;;;;;5044810;28;20025;-92
2022/05/31 05:03:41;;;;;;;12.27;4.70;;;9.00;99.90;;;;;;5050487;28;20093;-93
2022/05/31 05:06:08;;;;;;;7.57;4.97;;;9.00;99.90;;;;;;5039905;28;20028;-92
2022/05/31 05:08:35;;;;;;;7.68;4.72;;;8.90;99.90;;;;;;5037409;28;20037;-93
2022/05/31 05:11:06;;;;;;;9.63;4.97;;;9.00;99.90;;;;;;5036103;28;20112;-91
2022/05/31 05:13:32;;;;;;;10.25;5.40;;;8.90;99.90;;;;;;5036434;28;20057;-92
2022/05/31 05:15:59;;;;;;;8.55;5.38;;;9.00;99.90;;;;;;5036398;28;20500;-91
2022/05/31 05:18:27;;;;;;;8.63;5.53;;;9.00;99.90;;;;;;5035888;28;20033;-92
2022/05/31 05:20:52;;;;;;;7.50;5.13;;;9.00;99.90;;;;;;5036389;28;20025;-94
2022/05/31 05:23:19;;;;;;;8.45;5.28;;;9.00;99.90;;;;;;5036557;28;20505;-92
2022/05/31 05:25:53;;;;;;;11.15;5.47;;;9.00;99.90;;;;;;5038579;28;20033;-93
2022/05/31 05:31:04;;;;;;;11.57;5.97;;;9.00;99.90;;;;;;5038371;28;20101;-93
2022/05/31 05:33:30;;;;;;;11.50;5.60;;;9.10;99.90;;;;;;5036880;28;20423;-94
2022/05/31 05:35:57;;;;;;;7.78;5.07;;;9.00;99.90;;;;;;5038318;28;20545;-91
2022/05/31 05:38:23;;;;;;;8.30;5.25;;;9.10;99.90;;;;;;5047879;28;20026;-95
2022/05/31 05:40:49;;;;;;;9.10;5.50;;;9.10;99.90;;;;;;5038693;28;20029;-91
2022/05/31 05:43:16;;;;;;;9.48;5.28;;;9.10;99.90;;;;;;5037235;28;20125;-93
2022/05/31 05:45:42;;;;;;;8.32;4.65;;;9.10;99.90;;;;;;5035859;28;20032;-92
2022/05/31 05:48:08;;;;;;;11.07;5.35;;;9.10;99.90;;;;;;5036184;28;20101;-94
2022/05/31 05:50:36;;;;;;;7.28;5.15;;;9.10;99.90;;;;;;5035126;28;20021;-92
2022/05/31 05:53:04;;;;;;;10.70;5.65;;;9.10;99.90;;;;;;5035486;28;20037;-91
2022/05/31 05:55:30;;;;;;;10.20;6.00;;;9.10;99.90;;;;;;5035333;28;20034;-92
2022/05/31 05:57:55;;;;;;;8.88;5.43;;;9.10;99.90;;;;;;5035601;28;20025;-92
2022/05/31 06:00:24;;;;;;;10.32;5.47;;;9.10;99.90;;;;;;5035343;28;20513;-93
2022/05/31 06:03:19;;;;;;;8.43;5.13;;;9.10;99.90;;;;;;5035236;28;20075;-92
2022/05/31 06:05:46;;;;;;;8.20;5.40;;;9.10;99.90;;;;;;5034246;28;20061;-92
2022/05/31 06:08:20;;;;;;;10.23;5.85;;;9.10;99.90;;;;;;5034764;28;20044;-92
2022/05/31 06:11:16;;;;;;;9.98;5.00;;;9.10;99.90;;;;;;5034976;28;20033;-92
2022/05/31 06:13:57;;;;;;;8.70;5.10;;;9.10;99.90;;;;;;5034331;28;20115;-93
2022/05/31 06:16:26;;;;;;;7.70;4.90;;;9.10;99.90;;;;;;5035168;28;20029;-91
2022/05/31 06:18:59;;;;;;;10.02;6.20;;;9.10;99.90;;;;;;5036921;28;20120;-91
2022/05/31 06:21:25;;;;;;;11.00;5.68;;;9.10;99.90;;;;;;5051918;28;20460;-92
2022/05/31 06:23:54;;;;;;;10.18;6.22;;;9.10;99.90;;;;;;5045468;28;20027;-92
2022/05/31 06:26:20;;;;;;;15.20;6.45;;;9.10;99.90;;;;;;5050276;28;20029;-92
2022/05/31 06:28:46;;;;;;;9.48;5.93;;;9.10;99.90;;;;;;5037764;28;20288;-92
2022/05/31 06:31:12;;;;;;;14.23;6.85;;;9.10;99.90;;;;;;5035675;28;20275;-92
2022/05/31 06:33:38;;;;;;;11.00;5.80;;;9.10;99.90;;;;;;5034955;28;20116;-93
2022/05/31 06:36:07;;;;;;;8.20;5.70;;;9.10;99.90;;;;;;5035172;28;20053;-93
2022/05/31 06:38:33;;;;;;;11.35;6.70;;;9.20;99.90;;;;;;5034887;28;20036;-93
2022/05/31 06:40:59;;;;;;;14.90;6.68;;;9.30;99.90;;;;;;5034950;28;20025;-93
2022/05/31 06:43:24;;;;;;;10.93;5.80;;;9.40;99.90;;;;;;5034364;28;20029;-92
2022/05/31 06:45:50;;;;;;;10.88;5.55;;;9.40;99.90;;;;;;5034833;28;20036;-91
2022/05/31 06:48:17;;;;;;;9.73;5.00;;;9.50;99.90;;;;;;5034990;28;20045;-91
2022/05/31 06:50:43;;;;;;;7.82;4.95;;;9.50;99.90;;;;;;5034813;28;20021;-93
2022/05/31 06:58:41;;;;;;;12.07;6.53;;;9.50;99.90;;;;;;5048493;28;20040;-93
2022/05/31 07:01:09;;;;;;;10.45;7.13;;;9.60;99.90;;;;;;5054980;28;20037;-90
2022/05/31 07:03:34;;;;;;;8.88;6.82;;;9.60;99.90;;;;;;5056879;28;20028;-90
2022/05/31 07:06:00;;;;;;;14.68;8.05;;;9.70;99.90;;;;;;5053451;28;20025;-91
2022/05/31 07:08:26;;;;;;;10.68;6.63;;;9.70;99.90;;;;;;5035190;28;20592;-92
2022/05/31 07:10:52;;;;;;;9.00;6.03;;;9.70;99.90;;;;;;5035060;28;20021;-92
2022/05/31 07:13:20;;;;;;;8.50;6.18;;;9.70;99.90;;;;;;5034113;28;20063;-93
2022/05/31 07:15:46;;;;;;;10.20;5.97;;;9.70;99.90;;;;;;5034051;28;20049;-92
2022/05/31 07:18:12;;;;;;;11.73;6.28;;;9.70;99.90;;;;;;5035606;28;20029;-92
2022/05/31 07:20:37;;;;;;;9.70;6.15;;;9.80;99.90;;;;;;5034241;28;20168;-92
2022/05/31 07:23:03;;;;;;;10.00;5.40;;;9.80;99.90;;;;;;5034189;28;20076;-91
2022/05/31 07:25:29;;;;;;;7.78;4.93;;;9.90;99.90;;;;;;5034007;28;20180;-92
2022/05/31 07:27:55;;;;;;;6.20;4.50;;;10.00;99.90;;;;;;5033879;28;20204;-92
2022/05/31 07:30:21;;;;;;;6.72;4.80;;;10.00;99.90;;;;;;5033872;28;20044;-92
2022/05/31 07:32:48;;;;;;;9.13;5.00;;;10.10;99.90;;;;;;5033873;28;20058;-93
2022/05/31 07:35:14;;;;;;;5.93;4.57;;;10.30;99.90;;;;;;5033701;28;20565;-93
2022/05/31 07:37:39;;;;;;;8.18;4.95;;;10.30;99.90;;;;;;5033819;28;20525;-92
2022/05/31 07:40:06;;;;;;;5.13;3.92;;;10.40;99.90;;;;;;5034087;28;20045;-92
2022/05/31 07:42:32;;;;;;;7.80;4.75;;;10.40;99.90;;;;;;5034140;28;20382;-92
2022/05/31 07:44:58;;;;;;;5.40;3.97;;;10.50;99.90;;;;;;5033793;28;20053;-92
2022/05/31 07:47:25;;;;;;;4.63;3.13;;;10.60;99.90;;;;;;5033935;28;20017;-94
2022/05/31 07:49:51;;;;;;;5.20;3.60;;;10.70;99.90;;;;;;5033147;28;20113;-92
2022/05/31 07:52:18;;;;;;;5.15;2.75;;;10.80;99.90;;;;;;5033810;28;20505;-93
2022/05/31 07:54:44;;;;;;;6.72;3.72;;;10.80;99.90;;;;;;5034208;28;20029;-93
2022/05/31 07:58:30;;;;;;;7.00;2.78;;;10.90;99.90;;;;;;5033361;28;20119;-93
2022/05/31 07:59:59;;;;;;;5.95;3.25;;;11.00;99.90;;;;;;5035007;28;20029;-91
2022/05/31 08:02:24;;;;;;;6.00;2.80;;;11.00;99.90;;;;;;5034808;28;20021;-94
2022/05/31 08:04:50;;;;;;;4.65;3.05;;;11.10;99.90;;;;;;5036108;28;20083;-94
2022/05/31 08:07:16;;;;;;;4.40;2.85;;;11.20;99.90;;;;;;5035252;28;20076;-93
2022/05/31 08:09:42;;;;;;;3.90;3.00;;;11.20;99.90;;;;;;5034173;28;20095;-94
2022/05/31 08:12:12;;;;;;;9.20;3.30;;;11.20;99.90;;;;;;5033850;28;20018;-93
2022/05/31 08:14:38;;;;;;;4.97;3.00;;;11.30;99.90;;;;;;5038060;28;20025;-92
2022/05/31 08:17:04;;;;;;;4.22;3.08;;;11.30;99.90;;;;;;5038806;28;20025;-93
2022/05/31 08:19:31;;;;;;;5.50;3.42;;;11.40;99.90;;;;;;5038470;28;20167;-93
2022/05/31 08:21:57;;;;;;;5.05;2.53;;;11.40;99.90;;;;;;5037823;28;20036;-93
2022/05/31 08:24:23;;;;;;;4.70;2.70;;;11.50;99.90;;;;;;5037644;28;20029;-93
2022/05/31 08:26:49;;;;;;;2.67;1.92;;;11.60;99.90;;;;;;5037611;28;20030;-93
2022/05/31 08:29:16;;;;;;;2.45;2.10;;;11.60;99.90;;;;;;5037055;28;20125;-95
2022/05/31 08:31:42;;;;;;;3.90;2.17;;;11.70;99.90;;;;;;5037063;28;20042;-93
2022/05/31 08:34:08;;;;;;;4.07;2.25;;;11.80;99.90;;;;;;5037074;28;20423;-93
2022/05/31 08:36:34;;;;;;;4.30;2.40;;;11.90;99.90;;;;;;5037332;28;20174;-92
2022/05/31 08:39:00;;;;;;;4.13;2.03;;;12.00;99.90;;;;;;5037143;28;20430;-92
2022/05/31 08:41:31;;;;;;;2.80;1.90;;;12.10;99.90;;;;;;5037446;28;20021;-93
2022/05/31 08:44:12;;;;;;;2.85;2.00;;;12.10;99.90;;;;;;5037120;28;20030;-93
2022/05/31 08:47:01;;;;;;;3.35;2.10;;;12.20;99.90;;;;;;5037131;28;20494;-93
2022/05/31 08:52:53;;;;;;;1.92;1.45;;;12.40;99.90;;;;;;5038026;28;20036;-93
2022/05/31 08:58:18;;;;;;;1.77;1.00;;;12.60;99.90;;;;;;5037766;28;19951;-93
2022/05/31 09:00:48;;;;;;;1.02;0.90;;;12.60;99.90;;;;;;5037138;28;20031;-93
2022/05/31 09:03:19;;;;;;;2.50;1.80;;;12.60;99.90;;;;;;5037180;28;20029;-93
2022/05/31 09:06:07;;;;;;;2.70;2.08;;;12.60;99.90;;;;;;5046087;28;20269;-94
2022/05/31 09:08:45;;;;;;;2.35;1.40;;;12.60;99.90;;;;;;5047747;28;20034;-93
2022/05/31 09:11:26;;;;;;;1.90;1.60;;;12.60;99.90;;;;;;5037231;28;20060;-94
2022/05/31 09:14:22;;;;;;;1.67;1.20;;;12.60;99.90;;;;;;5036859;28;20095;-93
2022/05/31 09:17:00;;;;;;;5.47;1.98;;;12.70;99.90;;;;;;5036827;28;20442;-92
2022/05/31 09:19:49;;;;;;;6.05;2.08;;;12.80;99.90;;;;;;5036745;28;20026;-93
2022/05/31 09:22:15;;;;;;;3.38;2.05;;;13.00;99.90;;;;;;5036262;28;20057;-92
2022/05/31 09:24:44;;;;;;;4.68;2.45;;;13.10;99.90;;;;;;5035079;28;20036;-93
2022/05/31 09:27:14;;;;;;;4.13;2.90;;;13.20;99.90;;;;;;5036489;28;20390;-93
2022/05/31 09:29:55;;;;;;;10.60;5.88;;;13.30;99.90;;;;;;5036403;28;20029;-92
2022/05/31 09:32:54;;;;;;;10.48;5.78;;;13.40;99.90;;;;;;5035552;28;20103;-92
2022/05/31 09:35:20;;;;;;;7.85;4.72;;;13.50;99.90;;;;;;5035669;28;20025;-92
2022/05/31 09:37:57;;;;;;;7.63;4.65;;;13.50;99.90;;;;;;5036011;28;20035;-92
2022/05/31 09:40:42;;;;;;;11.05;5.32;;;13.50;99.90;;;;;;5036356;28;20108;-92
2022/05/31 09:43:11;;;;;;;8.55;5.05;;;13.40;99.90;;;;;;5035994;28;20101;-92
2022/05/31 09:45:42;;;;;;;8.52;4.88;;;13.40;99.90;;;;;;5036071;28;20028;-93
2022/05/31 09:48:08;;;;;;;9.80;5.57;;;13.60;99.90;;;;;;5038517;28;20029;-93
2022/05/31 09:50:34;;;;;;;7.57;4.88;;;13.60;99.90;;;;;;5035958;28;20095;-94
2022/05/31 09:53:00;;;;;;;4.80;2.30;;;13.70;99.90;;;;;;5035670;28;20675;-92
2022/05/31 09:58:27;;;;;;;3.92;1.65;;;13.20;99.90;;;;;;5037082;28;20036;-92
2022/05/31 10:01:11;;;;;;;2.65;1.92;;;12.80;99.90;;;;;;5035135;28;20022;-93
2022/05/31 10:03:40;;;;;;;2.67;1.60;;;12.50;99.90;;;;;;5035698;28;20112;-92
2022/05/31 10:06:12;;;;;;;2.20;1.83;;;12.30;99.90;;;;;;5035601;28;20108;-90
2022/05/31 10:08:38;;;;;;;4.78;2.22;;;12.10;99.90;;;;;;5037925;28;20045;-92
2022/05/31 10:11:09;;;;;;;4.00;1.73;;;11.90;99.90;;;;;;5037358;28;20109;-91
2022/05/31 10:13:53;;;;;;;2.03;1.42;;;11.90;99.90;;;;;;5036717;28;20029;-92
2022/05/31 10:16:37;;;;;;;3.65;1.65;;;11.70;99.90;;;;;;5035983;28;20044;-92
2022/05/31 10:19:06;;;;;;;1.95;1.65;;;11.60;99.90;;;;;;5035241;28;20025;-92
2022/05/31 10:21:38;;;;;;;1.88;1.65;;;11.50;99.90;;;;;;5034795;28;20025;-93
2022/05/31 10:24:21;;;;;;;2.33;1.20;;;11.50;99.90;;;;;;5035454;28;20471;-94
2022/05/31 10:27:10;;;;;;;1.42;1.25;;;11.40;99.90;;;;;;5035799;28;20025;-94
2022/05/31 10:29:50;;;;;;;1.85;1.23;;;11.40;99.90;;;;;;5035432;28;20065;-92
2022/05/31 10:32:27;;;;;;;2.83;1.20;;;11.40;99.90;;;;;;5034811;28;20041;-94
2022/05/31 10:35:22;;;;;;;2.15;1.38;;;11.50;99.90;;;;;;5034749;28;20033;-92
2022/05/31 10:38:25;;;;;;;1.30;1.20;;;11.50;99.90;;;;;;5025544;28;20037;-92
2022/05/31 10:41:07;;;;;;;2.85;1.38;;;11.60;99.90;;;;;;5034745;28;20033;-93
2022/05/31 10:43:43;;;;;;;1.45;1.08;;;11.80;99.90;;;;;;5034524;28;20109;-93
2022/05/31 10:46:15;;;;;;;1.02;0.93;;;12.00;99.90;;;;;;5034524;28;20013;-94
2022/05/31 10:48:49;;;;;;;2.58;0.85;;;12.10;99.90;;;;;;5034105;28;20037;-93
2022/05/31 10:51:43;;;;;;;0.90;0.90;;;12.40;99.90;;;;;;5034444;28;20025;-94
2022/05/31 10:54:21;;;;;;;0.88;0.70;;;12.60;99.90;;;;;;5035596;28;20029;-94
2022/05/31 10:57:11;;;;;;;1.05;0.95;;;12.90;99.90;;;;;;5034563;28;20028;-95
2022/05/31 10:59:46;;;;;;;1.02;0.80;;;13.20;99.90;;;;;;5034401;28;20025;-93
2022/05/31 11:02:18;;;;;;;0.73;0.70;;;13.60;99.90;;;;;;5034225;28;20272;-94
2022/05/31 11:05:04;;;;;;;0.80;0.68;;;13.90;99.90;;;;;;5036726;28;20553;-93
2022/05/31 11:14:16;;;;;;;3.65;1.33;;;14.00;99.90;;;;;;5053436;28;20342;-95
2022/05/31 11:17:09;;;;;;;1.08;0.98;;;14.00;99.90;;;;;;5053940;28;20033;-93
2022/05/31 11:19:53;;;;;;;2.20;0.85;;;14.10;99.90;;;;;;5062638;28;20024;-93
2022/05/31 11:22:48;;;;;;;0.70;0.70;;;14.40;99.90;;;;;;5061387;28;20513;-93
2022/05/31 11:25:33;;;;;;;1.05;0.95;;;14.60;99.90;;;;;;5066906;28;20062;-93
2022/05/31 11:28:17;;;;;;;2.05;0.88;;;15.00;99.90;;;;;;5071711;28;20032;-92
2022/05/31 11:31:16;;;;;;;1.85;0.80;;;15.40;99.90;;;;;;5075010;28;20045;-92
2022/05/31 11:34:01;;;;;;;2.90;0.80;;;15.70;99.90;;;;;;5004992;28;20042;-93
2022/05/31 11:37:02;;;;;;;0.60;0.60;;;16.00;99.90;;;;;;4978137;28;20038;-93
2022/05/31 11:39:35;;;;;;;1.55;0.98;;;16.20;99.20;;;;;;4955062;28;20063;-92
2022/05/31 11:42:30;;;;;;;0.63;0.63;;;16.30;98.40;;;;;;4955322;29;20035;-93
2022/05/31 11:45:05;;;;;;;0.70;0.70;;;16.40;97.00;;;;;;4946368;28;20046;-93
2022/05/31 11:47:51;;;;;;;1.98;1.00;;;16.50;96.00;;;;;;4925130;29;20059;-93
2022/05/31 11:50:24;;;;;;;1.23;1.10;;;16.60;95.00;;;;;;4904056;29;20040;-93
2022/05/31 11:53:19;;;;;;;1.45;0.90;;;16.60;93.80;;;;;;4908359;29;20052;-93
2022/05/31 11:56:30;;;;;;;3.47;0.70;;;16.80;93.60;;;;;;4910727;29;20035;-91
2022/05/31 11:59:19;;;;;;;1.48;0.80;;;16.80;91.00;;;;;;4901461;29;20044;-90
2022/05/31 12:02:00;;;;;;;1.73;0.70;;;16.70;89.30;;;;;;4900910;29;20024;-91
2022/05/31 12:04:38;;;;;;;1.23;0.90;;;16.70;89.20;;;;;;4916154;29;20547;-92
2022/05/31 12:07:14;;;;;;;1.25;0.75;;;16.80;89.10;;;;;;4900528;29;20047;-91
2022/05/31 12:10:01;;;;;;;2.97;0.93;;;16.90;89.60;;;;;;4910456;28;20073;-91
2022/05/31 12:12:31;;;;;;;2.35;0.88;;;16.90;89.90;;;;;;4979839;28;20109;-93
2022/05/31 12:15:11;;;;;;;1.08;0.60;;;17.00;89.40;;;;;;5034000;28;20022;-93
2022/05/31 12:17:55;;;;;;;0.40;0.40;;;16.60;87.30;;;;;;5033471;28;20434;-92
2022/05/31 12:20:46;;;;;;;0.60;0.20;;;16.30;87.10;;;;;;5033206;28;20038;-91
2022/05/31 12:23:36;;;;;;;0.80;0.40;;;15.90;87.80;;;;;;5033451;28;20095;-91
2022/05/31 12:26:04;;;;;;;0.30;0.30;;;15.60;88.90;;;;;;5033276;28;20057;-92
2022/05/31 12:28:38;;;;;;;0.22;0.22;;;15.30;90.10;;;;;;5034166;28;20065;-92
2022/05/31 12:31:28;;;;;;;0.30;0.30;;;15.10;90.50;;;;;;5032480;28;20025;-91
2022/05/31 12:34:31;;;;;;;0.50;0.33;;;15.10;91.10;;;;;;5032357;28;20487;-93
2022/05/31 12:36:59;;;;;;;0.95;0.32;;;15.20;91.50;;;;;;5029057;28;20048;-92
2022/05/31 12:39:30;;;;;;;0.15;0.15;;;15.20;91.10;;;;;;5032837;28;20041;-92
2022/05/31 12:42:16;;;;;;;;;;;15.20;90.80;;;;;;5033721;28;20045;-91
2022/05/31 12:44:44;;;;;;;1.63;0.85;;;15.20;90.50;;;;;;5033587;28;19905;-92
2022/05/31 12:47:29;;;;;;;0.90;0.13;;;15.00;90.20;;;;;;5033526;28;20030;-91
2022/05/31 12:49:55;;;;;;;2.05;0.20;;;14.90;90.40;;;;;;5033345;28;20041;-93
2022/05/31 12:55:00;;;;;;;1.27;0.32;;;14.90;90.90;;;;;;5034287;28;20029;-92
2022/05/31 13:00:32;;;;;;;1.20;0.50;;;14.80;91.40;;;;;;5045604;28;20072;-93
2022/05/31 13:02:58;;;;;;;0.20;0.20;;;14.80;91.70;;;;;;5036214;28;20065;-91
2022/05/31 13:05:32;;;;;;;2.10;0.50;;;14.80;91.80;;;;;;5035907;28;20021;-91
2022/05/31 13:08:35;;;;;;;0.52;0.43;;;14.80;91.80;;;;;;5036341;28;20120;-92
2022/05/31 13:22:14;;;;;;;0.73;0.32;;;15.80;90.90;;;;;;5036809;28;20067;-93
2022/05/31 13:24:48;;;;;;;0.85;0.30;;;16.00;90.50;;;;;;5035896;28;20036;-93
2022/05/31 13:27:20;;;;;;;0.50;0.45;;;16.00;89.90;;;;;;5035863;28;20024;-92
2022/05/31 13:30:02;;;;;;;0.50;0.50;;;16.00;89.10;;;;;;5035862;28;20042;-93
2022/05/31 13:32:36;;;;;;;0.47;0.45;;;15.90;88.80;;;;;;5036788;28;20061;-92
2022/05/31 13:35:09;;;;;;;1.10;0.55;;;15.80;89.00;;;;;;5037428;28;20116;-92
2022/05/31 13:37:58;;;;;;;0.65;0.40;;;15.80;89.10;;;;;;5036984;28;20022;-93
2022/05/31 13:40:36;;;;;;;0.70;0.60;;;15.70;89.10;;;;;;5036808;28;20092;-93
2022/05/31 13:43:05;;;;;;;1.15;0.98;;;15.70;88.50;;;;;;5036854;28;20037;-92
2022/05/31 13:45:33;;;;;;;1.08;0.98;;;15.70;88.60;;;;;;5046295;28;20042;-94
2022/05/31 13:48:12;;;;;;;2.30;0.82;;;15.70;88.90;;;;;;5038640;28;20033;-92
2022/05/31 13:50:58;;;;;;;1.25;0.90;;;15.80;88.50;;;;;;5036315;28;20036;-93
2022/05/31 13:53:26;;;;;;;3.28;0.93;;;15.80;88.10;;;;;;5036475;28;20060;-93
2022/05/31 13:55:59;;;;;;;3.38;1.05;;;15.80;87.70;;;;;;5036066;28;20029;-93